sensor_id;sensor_type;location;lat;lon;timestamp;pressure;altitude;pressure_sealevel;temperature;humidity
78198;BME280;67472;51.554;7.812;2023-12-07T00:01:52;101092.31;;;4.13;100.00
78198;BME280;67472;51.554;7.812;2023-12-07T00:04:38;101095.81;;;4.12;100.00
78198;BME280;67472;51.554;7.812;2023-12-07T00:07:25;101096.38;;;4.19;100.00
78198;BME280;67472;51.554;7.812;2023-12-07T00:10:12;101097.16;;;4.21;100.00
78198;BME280;67472;51.554;7.812;2023-12-07T00:12:58;101100.94;;;4.32;100.00
78198;BME280;67472;51.554;7.812;2023-12-07T00:15:46;101096.06;;;4.42;100.00
78198;BME280;67472;51.554;7.812;2023-12-07T00:18:33;101102.53;;;4.35;100.00
78198;BME280;67472;51.554;7.812;2023-12-07T00:21:19;101116.94;;;4.43;100.00
78198;BME280;67472;51.554;7.812;2023-12-07T00:24:07;101112.47;;;4.45;100.00
78198;BME280;67472;51.554;7.812;2023-12-07T00:26:54;101107.78;;;4.35;100.00
78198;BME280;67472;51.554;7.812;2023-12-07T00:29:41;101107.69;;;4.36;100.00
78198;BME280;67472;51.554;7.812;2023-12-07T00:32:28;101111.16;;;4.37;100.00
78198;BME280;67472;51.554;7.812;2023-12-07T00:35:15;101103.00;;;4.26;100.00
78198;BME280;67472;51.554;7.812;2023-12-07T00:38:01;101105.63;;;4.26;100.00
78198;BME280;67472;51.554;7.812;2023-12-07T00:40:49;101111.22;;;4.35;100.00
78198;BME280;67472;51.554;7.812;2023-12-07T00:43:36;101118.69;;;4.26;100.00
78198;BME280;67472;51.554;7.812;2023-12-07T00:46:22;101122.00;;;4.29;100.00
78198;BME280;67472;51.554;7.812;2023-12-07T00:49:11;101118.00;;;4.39;100.00
78198;BME280;67472;51.554;7.812;2023-12-07T00:51:58;101110.75;;;4.27;100.00
78198;BME280;67472;51.554;7.812;2023-12-07T00:54:44;101115.47;;;4.21;100.00
78198;BME280;67472;51.554;7.812;2023-12-07T00:57:31;101126.69;;;4.23;100.00
78198;BME280;67472;51.554;7.812;2023-12-07T01:00:19;101119.91;;;4.19;100.00
78198;BME280;67472;51.554;7.812;2023-12-07T01:03:05;101123.22;;;4.22;100.00
78198;BME280;67472;51.554;7.812;2023-12-07T01:05:53;101121.38;;;4.24;100.00
78198;BME280;67472;51.554;7.812;2023-12-07T01:08:39;101114.34;;;4.08;100.00
78198;BME280;67472;51.554;7.812;2023-12-07T01:11:25;101116.41;;;4.01;100.00
78198;BME280;67472;51.554;7.812;2023-12-07T01:14:11;101126.97;;;3.99;100.00
78198;BME280;67472;51.554;7.812;2023-12-07T01:16:58;101124.81;;;4.08;100.00
78198;BME280;67472;51.554;7.812;2023-12-07T01:19:44;101137.03;;;4.07;100.00
78198;BME280;67472;51.554;7.812;2023-12-07T01:22:32;101136.53;;;4.18;100.00
78198;BME280;67472;51.554;7.812;2023-12-07T01:25:19;101133.22;;;4.14;100.00
78198;BME280;67472;51.554;7.812;2023-12-07T01:28:08;101129.44;;;4.20;100.00
78198;BME280;67472;51.554;7.812;2023-12-07T01:30:55;101137.44;;;4.17;100.00
78198;BME280;67472;51.554;7.812;2023-12-07T01:33:42;101134.69;;;4.20;100.00
78198;BME280;67472;51.554;7.812;2023-12-07T01:36:30;101124.28;;;4.18;100.00
78198;BME280;67472;51.554;7.812;2023-12-07T01:39:18;101127.28;;;4.28;100.00
78198;BME280;67472;51.554;7.812;2023-12-07T01:42:06;101126.81;;;4.03;100.00
78198;BME280;67472;51.554;7.812;2023-12-07T01:44:54;101135.41;;;4.05;100.00
78198;BME280;67472;51.554;7.812;2023-12-07T01:47:42;101129.81;;;4.12;100.00
78198;BME280;67472;51.554;7.812;2023-12-07T01:50:29;101136.03;;;4.10;100.00
78198;BME280;67472;51.554;7.812;2023-12-07T01:53:18;101142.66;;;4.17;100.00
78198;BME280;67472;51.554;7.812;2023-12-07T01:56:08;101136.97;;;4.09;100.00
78198;BME280;67472;51.554;7.812;2023-12-07T01:58:55;101129.78;;;3.95;100.00
78198;BME280;67472;51.554;7.812;2023-12-07T02:01:41;101133.03;;;4.00;100.00
78198;BME280;67472;51.554;7.812;2023-12-07T02:04:29;101140.66;;;4.05;100.00
78198;BME280;67472;51.554;7.812;2023-12-07T02:07:16;101133.72;;;4.04;100.00
78198;BME280;67472;51.554;7.812;2023-12-07T02:10:04;101137.81;;;4.09;100.00
78198;BME280;67472;51.554;7.812;2023-12-07T02:12:54;101147.56;;;4.06;100.00
78198;BME280;67472;51.554;7.812;2023-12-07T02:15:41;101144.94;;;3.88;100.00
78198;BME280;67472;51.554;7.812;2023-12-07T02:18:34;101158.28;;;3.82;100.00
78198;BME280;67472;51.554;7.812;2023-12-07T02:21:30;101159.13;;;3.83;100.00
78198;BME280;67472;51.554;7.812;2023-12-07T02:24:21;101166.59;;;3.72;100.00
78198;BME280;67472;51.554;7.812;2023-12-07T02:27:10;101167.78;;;3.83;100.00
78198;BME280;67472;51.554;7.812;2023-12-07T02:29:56;101165.25;;;3.82;100.00
78198;BME280;67472;51.554;7.812;2023-12-07T02:32:44;101152.41;;;3.77;100.00
78198;BME280;67472;51.554;7.812;2023-12-07T02:35:32;101160.31;;;3.76;100.00
78198;BME280;67472;51.554;7.812;2023-12-07T02:38:21;101165.91;;;3.68;100.00
78198;BME280;67472;51.554;7.812;2023-12-07T02:41:10;101170.88;;;3.74;100.00
78198;BME280;67472;51.554;7.812;2023-12-07T02:43:58;101166.53;;;3.73;100.00
78198;BME280;67472;51.554;7.812;2023-12-07T02:46:45;101162.19;;;3.74;100.00
78198;BME280;67472;51.554;7.812;2023-12-07T02:49:33;101163.97;;;3.90;100.00
78198;BME280;67472;51.554;7.812;2023-12-07T02:52:21;101166.88;;;3.84;100.00
78198;BME280;67472;51.554;7.812;2023-12-07T02:55:08;101162.84;;;3.77;100.00
78198;BME280;67472;51.554;7.812;2023-12-07T02:57:58;101158.56;;;3.76;100.00
78198;BME280;67472;51.554;7.812;2023-12-07T03:00:45;101162.03;;;3.77;100.00
78198;BME280;67472;51.554;7.812;2023-12-07T03:03:32;101164.97;;;3.69;100.00
78198;BME280;67472;51.554;7.812;2023-12-07T03:06:18;101173.03;;;3.65;100.00
78198;BME280;67472;51.554;7.812;2023-12-07T03:09:05;101167.41;;;3.74;100.00
78198;BME280;67472;51.554;7.812;2023-12-07T03:11:51;101171.00;;;3.71;100.00
78198;BME280;67472;51.554;7.812;2023-12-07T03:14:39;101171.28;;;3.65;100.00
78198;BME280;67472;51.554;7.812;2023-12-07T03:17:27;101174.53;;;3.70;100.00
78198;BME280;67472;51.554;7.812;2023-12-07T03:20:14;101175.44;;;3.69;100.00
78198;BME280;67472;51.554;7.812;2023-12-07T03:23:00;101165.97;;;3.67;100.00
78198;BME280;67472;51.554;7.812;2023-12-07T03:25:46;101164.28;;;3.66;100.00
78198;BME280;67472;51.554;7.812;2023-12-07T03:28:33;101166.41;;;3.58;100.00
78198;BME280;67472;51.554;7.812;2023-12-07T03:31:20;101160.91;;;3.45;100.00
78198;BME280;67472;51.554;7.812;2023-12-07T03:34:09;101161.41;;;3.53;100.00
78198;BME280;67472;51.554;7.812;2023-12-07T03:36:57;101165.00;;;3.51;100.00
78198;BME280;67472;51.554;7.812;2023-12-07T03:39:43;101158.78;;;3.53;100.00
78198;BME280;67472;51.554;7.812;2023-12-07T03:42:31;101167.53;;;3.52;100.00
78198;BME280;67472;51.554;7.812;2023-12-07T03:45:17;101162.78;;;3.60;100.00
78198;BME280;67472;51.554;7.812;2023-12-07T03:48:04;101154.13;;;3.60;100.00
78198;BME280;67472;51.554;7.812;2023-12-07T03:50:52;101150.53;;;3.62;100.00
78198;BME280;67472;51.554;7.812;2023-12-07T03:53:38;101147.78;;;3.65;100.00
78198;BME280;67472;51.554;7.812;2023-12-07T03:56:25;101154.75;;;3.65;100.00
78198;BME280;67472;51.554;7.812;2023-12-07T03:59:11;101154.13;;;3.60;100.00
78198;BME280;67472;51.554;7.812;2023-12-07T04:02:00;101148.53;;;3.49;100.00
78198;BME280;67472;51.554;7.812;2023-12-07T04:04:46;101141.28;;;3.55;100.00
78198;BME280;67472;51.554;7.812;2023-12-07T04:07:34;101142.84;;;3.59;100.00
78198;BME280;67472;51.554;7.812;2023-12-07T04:10:20;101143.75;;;3.58;100.00
78198;BME280;67472;51.554;7.812;2023-12-07T04:13:07;101136.25;;;3.32;100.00
78198;BME280;67472;51.554;7.812;2023-12-07T04:15:53;101153.94;;;3.25;100.00
78198;BME280;67472;51.554;7.812;2023-12-07T04:18:39;101140.22;;;3.22;100.00
78198;BME280;67472;51.554;7.812;2023-12-07T04:21:26;101148.94;;;3.21;100.00
78198;BME280;67472;51.554;7.812;2023-12-07T04:24:14;101152.34;;;3.23;100.00
78198;BME280;67472;51.554;7.812;2023-12-07T04:27:01;101155.59;;;3.28;100.00
78198;BME280;67472;51.554;7.812;2023-12-07T04:29:48;101157.50;;;3.24;100.00
78198;BME280;67472;51.554;7.812;2023-12-07T04:32:34;101150.56;;;3.23;100.00
78198;BME280;67472;51.554;7.812;2023-12-07T04:35:20;101157.13;;;3.13;100.00
78198;BME280;67472;51.554;7.812;2023-12-07T04:38:07;101153.72;;;3.11;100.00
78198;BME280;67472;51.554;7.812;2023-12-07T04:40:58;101168.13;;;3.20;100.00
78198;BME280;67472;51.554;7.812;2023-12-07T04:43:45;101165.56;;;3.00;100.00
78198;BME280;67472;51.554;7.812;2023-12-07T04:46:31;101166.28;;;3.03;100.00
78198;BME280;67472;51.554;7.812;2023-12-07T04:49:18;101171.69;;;2.99;100.00
78198;BME280;67472;51.554;7.812;2023-12-07T04:52:05;101165.13;;;2.90;100.00
78198;BME280;67472;51.554;7.812;2023-12-07T04:54:51;101173.41;;;2.79;100.00
78198;BME280;67472;51.554;7.812;2023-12-07T04:57:39;101177.09;;;2.94;100.00
78198;BME280;67472;51.554;7.812;2023-12-07T05:00:26;101185.31;;;3.05;100.00
78198;BME280;67472;51.554;7.812;2023-12-07T05:03:13;101190.66;;;3.02;100.00
78198;BME280;67472;51.554;7.812;2023-12-07T05:05:59;101182.06;;;3.00;100.00
78198;BME280;67472;51.554;7.812;2023-12-07T05:08:46;101179.59;;;2.97;100.00
78198;BME280;67472;51.554;7.812;2023-12-07T05:11:32;101179.41;;;3.02;100.00
78198;BME280;67472;51.554;7.812;2023-12-07T05:14:20;101173.31;;;3.01;100.00
78198;BME280;67472;51.554;7.812;2023-12-07T05:17:07;101177.75;;;2.99;100.00
78198;BME280;67472;51.554;7.812;2023-12-07T05:19:53;101182.97;;;2.99;100.00
78198;BME280;67472;51.554;7.812;2023-12-07T05:22:41;101180.22;;;2.82;100.00
78198;BME280;67472;51.554;7.812;2023-12-07T05:25:29;101192.50;;;3.00;100.00
78198;BME280;67472;51.554;7.812;2023-12-07T05:28:16;101184.81;;;2.77;100.00
78198;BME280;67472;51.554;7.812;2023-12-07T05:31:04;101186.41;;;3.00;100.00
78198;BME280;67472;51.554;7.812;2023-12-07T05:33:52;101182.06;;;2.80;100.00
78198;BME280;67472;51.554;7.812;2023-12-07T05:36:38;101175.88;;;2.62;100.00
78198;BME280;67472;51.554;7.812;2023-12-07T05:39:24;101181.09;;;2.62;100.00
78198;BME280;67472;51.554;7.812;2023-12-07T05:42:11;101182.44;;;2.51;100.00
78198;BME280;67472;51.554;7.812;2023-12-07T05:44:58;101182.91;;;2.60;100.00
78198;BME280;67472;51.554;7.812;2023-12-07T05:47:46;101185.91;;;2.51;100.00
78198;BME280;67472;51.554;7.812;2023-12-07T05:50:32;101195.97;;;2.39;100.00
78198;BME280;67472;51.554;7.812;2023-12-07T05:53:20;101197.03;;;2.35;100.00
78198;BME280;67472;51.554;7.812;2023-12-07T05:56:07;101193.75;;;2.29;100.00
78198;BME280;67472;51.554;7.812;2023-12-07T05:58:54;101195.78;;;2.23;100.00
78198;BME280;67472;51.554;7.812;2023-12-07T06:01:42;101188.34;;;2.12;100.00
78198;BME280;67472;51.554;7.812;2023-12-07T06:04:31;101198.13;;;2.07;100.00
78198;BME280;67472;51.554;7.812;2023-12-07T06:07:17;101198.97;;;2.08;100.00
78198;BME280;67472;51.554;7.812;2023-12-07T06:10:05;101205.69;;;2.13;100.00
78198;BME280;67472;51.554;7.812;2023-12-07T06:12:52;101205.09;;;2.07;100.00
78198;BME280;67472;51.554;7.812;2023-12-07T06:15:40;101198.28;;;1.81;100.00
78198;BME280;67472;51.554;7.812;2023-12-07T06:18:27;101198.13;;;1.86;100.00
78198;BME280;67472;51.554;7.812;2023-12-07T06:21:16;101206.50;;;1.94;100.00
78198;BME280;67472;51.554;7.812;2023-12-07T06:24:03;101202.13;;;1.94;100.00
78198;BME280;67472;51.554;7.812;2023-12-07T06:26:49;101201.25;;;1.72;100.00
78198;BME280;67472;51.554;7.812;2023-12-07T06:29:35;101204.78;;;1.71;100.00
78198;BME280;67472;51.554;7.812;2023-12-07T06:32:21;101203.81;;;1.74;100.00
78198;BME280;67472;51.554;7.812;2023-12-07T06:35:11;101199.59;;;1.69;100.00
78198;BME280;67472;51.554;7.812;2023-12-07T06:38:00;101208.72;;;1.58;100.00
78198;BME280;67472;51.554;7.812;2023-12-07T06:40:46;101220.22;;;1.52;100.00
78198;BME280;67472;51.554;7.812;2023-12-07T06:43:33;101220.28;;;1.51;100.00
78198;BME280;67472;51.554;7.812;2023-12-07T06:46:19;101219.66;;;1.44;100.00
78198;BME280;67472;51.554;7.812;2023-12-07T06:49:06;101227.94;;;1.31;100.00
78198;BME280;67472;51.554;7.812;2023-12-07T06:51:55;101222.25;;;1.44;100.00
78198;BME280;67472;51.554;7.812;2023-12-07T06:54:43;101231.84;;;1.42;100.00
78198;BME280;67472;51.554;7.812;2023-12-07T06:57:29;101220.97;;;1.31;100.00
78198;BME280;67472;51.554;7.812;2023-12-07T07:00:17;101226.31;;;1.28;100.00
78198;BME280;67472;51.554;7.812;2023-12-07T07:03:04;101229.00;;;1.25;100.00
78198;BME280;67472;51.554;7.812;2023-12-07T07:05:51;101220.78;;;1.37;100.00
78198;BME280;67472;51.554;7.812;2023-12-07T07:08:39;101218.34;;;1.33;100.00
78198;BME280;67472;51.554;7.812;2023-12-07T07:11:27;101229.72;;;1.30;100.00
78198;BME280;67472;51.554;7.812;2023-12-07T07:14:14;101221.94;;;1.29;100.00
78198;BME280;67472;51.554;7.812;2023-12-07T07:17:00;101215.63;;;1.36;100.00
78198;BME280;67472;51.554;7.812;2023-12-07T07:19:47;101220.72;;;1.39;100.00
78198;BME280;67472;51.554;7.812;2023-12-07T07:22:33;101215.09;;;1.26;100.00
78198;BME280;67472;51.554;7.812;2023-12-07T07:25:20;101217.19;;;1.17;100.00
78198;BME280;67472;51.554;7.812;2023-12-07T07:28:08;101216.84;;;1.26;100.00
78198;BME280;67472;51.554;7.812;2023-12-07T07:30:55;101215.03;;;1.04;100.00
78198;BME280;67472;51.554;7.812;2023-12-07T07:33:42;101212.66;;;0.98;100.00
78198;BME280;67472;51.554;7.812;2023-12-07T07:36:28;101206.19;;;1.08;100.00
78198;BME280;67472;51.554;7.812;2023-12-07T07:39:15;101204.88;;;1.22;100.00
78198;BME280;67472;51.554;7.812;2023-12-07T07:42:01;101208.75;;;1.10;100.00
78198;BME280;67472;51.554;7.812;2023-12-07T07:44:48;101206.09;;;1.11;100.00
78198;BME280;67472;51.554;7.812;2023-12-07T07:47:35;101200.53;;;0.97;100.00
78198;BME280;67472;51.554;7.812;2023-12-07T07:50:21;101211.38;;;1.10;100.00
78198;BME280;67472;51.554;7.812;2023-12-07T07:53:07;101216.88;;;1.01;100.00
78198;BME280;67472;51.554;7.812;2023-12-07T07:55:55;101213.81;;;0.90;100.00
78198;BME280;67472;51.554;7.812;2023-12-07T07:58:41;101226.25;;;1.05;100.00
78198;BME280;67472;51.554;7.812;2023-12-07T08:01:29;101222.88;;;1.03;100.00
78198;BME280;67472;51.554;7.812;2023-12-07T08:04:16;101232.31;;;1.05;100.00
78198;BME280;67472;51.554;7.812;2023-12-07T08:07:03;101219.84;;;1.15;100.00
78198;BME280;67472;51.554;7.812;2023-12-07T08:09:53;101227.22;;;1.27;100.00
78198;BME280;67472;51.554;7.812;2023-12-07T08:12:40;101221.28;;;1.24;100.00
78198;BME280;67472;51.554;7.812;2023-12-07T08:15:27;101225.81;;;1.42;100.00
78198;BME280;67472;51.554;7.812;2023-12-07T08:18:16;101215.88;;;1.28;100.00
78198;BME280;67472;51.554;7.812;2023-12-07T08:21:04;101229.25;;;1.42;100.00
78198;BME280;67472;51.554;7.812;2023-12-07T08:23:54;101221.91;;;1.30;100.00
78198;BME280;67472;51.554;7.812;2023-12-07T08:26:40;101225.06;;;1.38;100.00
78198;BME280;67472;51.554;7.812;2023-12-07T08:29:26;101229.22;;;1.44;100.00
78198;BME280;67472;51.554;7.812;2023-12-07T08:32:12;101237.56;;;1.52;100.00
78198;BME280;67472;51.554;7.812;2023-12-07T08:35:01;101228.97;;;1.73;100.00
78198;BME280;67472;51.554;7.812;2023-12-07T08:37:47;101225.47;;;1.74;100.00
78198;BME280;67472;51.554;7.812;2023-12-07T08:40:34;101226.69;;;1.87;100.00
78198;BME280;67472;51.554;7.812;2023-12-07T08:43:21;101219.16;;;2.03;100.00
78198;BME280;67472;51.554;7.812;2023-12-07T08:46:09;101210.56;;;2.22;100.00
78198;BME280;67472;51.554;7.812;2023-12-07T08:48:55;101229.34;;;2.31;100.00
78198;BME280;67472;51.554;7.812;2023-12-07T08:51:43;101219.22;;;2.23;100.00
78198;BME280;67472;51.554;7.812;2023-12-07T08:54:29;101217.25;;;2.50;100.00
78198;BME280;67472;51.554;7.812;2023-12-07T08:57:17;101217.53;;;2.64;100.00
78198;BME280;67472;51.554;7.812;2023-12-07T09:00:06;101219.56;;;2.77;100.00
78198;BME280;67472;51.554;7.812;2023-12-07T09:02:53;101221.31;;;2.77;100.00
78198;BME280;67472;51.554;7.812;2023-12-07T09:05:39;101226.41;;;3.00;100.00
78198;BME280;67472;51.554;7.812;2023-12-07T09:08:27;101230.22;;;3.13;100.00
78198;BME280;67472;51.554;7.812;2023-12-07T09:11:13;101227.97;;;3.24;100.00
78198;BME280;67472;51.554;7.812;2023-12-07T09:13:59;101225.41;;;3.23;100.00
78198;BME280;67472;51.554;7.812;2023-12-07T09:16:45;101220.56;;;3.34;100.00
78198;BME280;67472;51.554;7.812;2023-12-07T09:19:33;101218.34;;;3.45;100.00
78198;BME280;67472;51.554;7.812;2023-12-07T09:22:21;101216.47;;;3.67;100.00
78198;BME280;67472;51.554;7.812;2023-12-07T09:25:10;101214.28;;;3.77;100.00
78198;BME280;67472;51.554;7.812;2023-12-07T09:27:56;101218.09;;;3.88;100.00
78198;BME280;67472;51.554;7.812;2023-12-07T09:30:43;101212.00;;;3.88;100.00
78198;BME280;67472;51.554;7.812;2023-12-07T09:33:30;101208.16;;;4.14;100.00
78198;BME280;67472;51.554;7.812;2023-12-07T09:36:17;101201.47;;;4.08;100.00
78198;BME280;67472;51.554;7.812;2023-12-07T09:39:06;101194.97;;;4.34;100.00
78198;BME280;67472;51.554;7.812;2023-12-07T09:41:56;101185.72;;;4.27;100.00
78198;BME280;67472;51.554;7.812;2023-12-07T09:44:43;101175.75;;;4.35;100.00
78198;BME280;67472;51.554;7.812;2023-12-07T09:47:30;101161.16;;;4.48;100.00
78198;BME280;67472;51.554;7.812;2023-12-07T09:50:18;101168.53;;;4.40;100.00
78198;BME280;67472;51.554;7.812;2023-12-07T09:53:07;101161.69;;;4.54;100.00
78198;BME280;67472;51.554;7.812;2023-12-07T09:55:54;101157.91;;;4.60;100.00
78198;BME280;67472;51.554;7.812;2023-12-07T09:58:44;101150.22;;;4.40;100.00
78198;BME280;67472;51.554;7.812;2023-12-07T10:01:31;101140.91;;;4.34;100.00
78198;BME280;67472;51.554;7.812;2023-12-07T10:04:20;101134.53;;;4.57;100.00
78198;BME280;67472;51.554;7.812;2023-12-07T10:07:07;101131.19;;;4.71;100.00
78198;BME280;67472;51.554;7.812;2023-12-07T10:09:54;101124.38;;;5.01;100.00
78198;BME280;67472;51.554;7.812;2023-12-07T10:12:45;101130.88;;;4.77;100.00
78198;BME280;67472;51.554;7.812;2023-12-07T10:15:35;101120.59;;;4.74;100.00
78198;BME280;67472;51.554;7.812;2023-12-07T10:18:23;101108.81;;;4.65;100.00
78198;BME280;67472;51.554;7.812;2023-12-07T10:21:09;101103.41;;;4.85;100.00
78198;BME280;67472;51.554;7.812;2023-12-07T10:23:56;101104.56;;;5.12;100.00
78198;BME280;67472;51.554;7.812;2023-12-07T10:26:45;101096.06;;;4.92;100.00
78198;BME280;67472;51.554;7.812;2023-12-07T10:29:35;101097.66;;;4.79;100.00
78198;BME280;67472;51.554;7.812;2023-12-07T10:32:23;101098.78;;;4.90;100.00
78198;BME280;67472;51.554;7.812;2023-12-07T10:35:09;101080.69;;;5.19;100.00
78198;BME280;67472;51.554;7.812;2023-12-07T10:37:56;101072.81;;;5.34;100.00
78198;BME280;67472;51.554;7.812;2023-12-07T10:40:43;101061.34;;;5.37;100.00
78198;BME280;67472;51.554;7.812;2023-12-07T10:43:29;101051.00;;;5.65;100.00
78198;BME280;67472;51.554;7.812;2023-12-07T10:46:19;101035.84;;;5.25;100.00
78198;BME280;67472;51.554;7.812;2023-12-07T10:49:11;101043.28;;;5.17;100.00
78198;BME280;67472;51.554;7.812;2023-12-07T10:52:06;101045.94;;;5.62;100.00
78198;BME280;67472;51.554;7.812;2023-12-07T10:54:57;101044.91;;;5.80;100.00
78198;BME280;67472;51.554;7.812;2023-12-07T10:57:47;101037.34;;;5.44;100.00
78198;BME280;67472;51.554;7.812;2023-12-07T11:00:34;101024.16;;;5.46;100.00
78198;BME280;67472;51.554;7.812;2023-12-07T11:03:21;101033.03;;;5.28;100.00
78198;BME280;67472;51.554;7.812;2023-12-07T11:06:09;101033.19;;;5.72;100.00
78198;BME280;67472;51.554;7.812;2023-12-07T11:08:59;101040.94;;;5.89;100.00
78198;BME280;67472;51.554;7.812;2023-12-07T11:11:51;101026.63;;;5.94;100.00
78198;BME280;67472;51.554;7.812;2023-12-07T11:14:40;101021.25;;;6.11;100.00
78198;BME280;67472;51.554;7.812;2023-12-07T11:17:27;101000.94;;;6.15;100.00
78198;BME280;67472;51.554;7.812;2023-12-07T11:20:18;100993.72;;;6.18;100.00
78198;BME280;67472;51.554;7.812;2023-12-07T11:23:08;100983.88;;;6.08;100.00
78198;BME280;67472;51.554;7.812;2023-12-07T11:25:55;100982.84;;;6.10;100.00
78198;BME280;67472;51.554;7.812;2023-12-07T11:28:42;100969.00;;;6.08;100.00
78198;BME280;67472;51.554;7.812;2023-12-07T11:31:32;100980.69;;;6.03;100.00
78198;BME280;67472;51.554;7.812;2023-12-07T11:34:33;100967.97;;;6.11;100.00
78198;BME280;67472;51.554;7.812;2023-12-07T11:37:21;100968.69;;;6.13;100.00
78198;BME280;67472;51.554;7.812;2023-12-07T11:40:09;100959.03;;;5.99;100.00
78198;BME280;67472;51.554;7.812;2023-12-07T11:42:56;100958.69;;;6.05;100.00
78198;BME280;67472;51.554;7.812;2023-12-07T11:45:47;100952.41;;;6.22;100.00
78198;BME280;67472;51.554;7.812;2023-12-07T11:48:35;100937.03;;;5.88;100.00
78198;BME280;67472;51.554;7.812;2023-12-07T11:51:22;100933.69;;;5.84;100.00
78198;BME280;67472;51.554;7.812;2023-12-07T11:54:09;100930.66;;;5.92;100.00
78198;BME280;67472;51.554;7.812;2023-12-07T11:56:59;100916.19;;;6.14;100.00
78198;BME280;67472;51.554;7.812;2023-12-07T11:59:46;100911.66;;;5.88;100.00
78198;BME280;67472;51.554;7.812;2023-12-07T12:02:35;100908.38;;;5.99;100.00
78198;BME280;67472;51.554;7.812;2023-12-07T12:05:22;100908.19;;;5.88;100.00
78198;BME280;67472;51.554;7.812;2023-12-07T12:08:08;100917.28;;;6.10;100.00
78198;BME280;67472;51.554;7.812;2023-12-07T12:10:56;100915.34;;;6.14;100.00
78198;BME280;67472;51.554;7.812;2023-12-07T12:13:45;100907.47;;;6.14;100.00
78198;BME280;67472;51.554;7.812;2023-12-07T12:16:31;100910.16;;;6.12;100.00
78198;BME280;67472;51.554;7.812;2023-12-07T12:19:19;100903.81;;;6.16;100.00
78198;BME280;67472;51.554;7.812;2023-12-07T12:22:06;100896.97;;;6.14;100.00
78198;BME280;67472;51.554;7.812;2023-12-07T12:24:53;100893.41;;;6.29;100.00
78198;BME280;67472;51.554;7.812;2023-12-07T12:27:41;100891.16;;;6.23;100.00
78198;BME280;67472;51.554;7.812;2023-12-07T12:30:31;100887.53;;;6.11;100.00
78198;BME280;67472;51.554;7.812;2023-12-07T12:33:18;100886.38;;;6.15;100.00
78198;BME280;67472;51.554;7.812;2023-12-07T12:36:07;100873.38;;;6.14;100.00
78198;BME280;67472;51.554;7.812;2023-12-07T12:38:56;100866.16;;;6.17;100.00
78198;BME280;67472;51.554;7.812;2023-12-07T12:41:43;100854.16;;;6.28;100.00
78198;BME280;67472;51.554;7.812;2023-12-07T12:44:31;100849.59;;;6.03;100.00
78198;BME280;67472;51.554;7.812;2023-12-07T12:47:20;100845.25;;;6.16;100.00
78198;BME280;67472;51.554;7.812;2023-12-07T12:50:07;100853.22;;;6.29;100.00
78198;BME280;67472;51.554;7.812;2023-12-07T12:52:53;100847.22;;;6.41;100.00
78198;BME280;67472;51.554;7.812;2023-12-07T12:55:42;100834.81;;;6.57;100.00
78198;BME280;67472;51.554;7.812;2023-12-07T12:58:28;100837.66;;;6.40;100.00
78198;BME280;67472;51.554;7.812;2023-12-07T13:01:16;100835.56;;;6.45;100.00
78198;BME280;67472;51.554;7.812;2023-12-07T13:04:04;100831.31;;;6.30;100.00
78198;BME280;67472;51.554;7.812;2023-12-07T13:06:52;100842.53;;;6.32;100.00
78198;BME280;67472;51.554;7.812;2023-12-07T13:09:38;100836.16;;;6.36;100.00
78198;BME280;67472;51.554;7.812;2023-12-07T13:12:24;100830.91;;;6.36;100.00
78198;BME280;67472;51.554;7.812;2023-12-07T13:15:12;100825.66;;;6.36;100.00
78198;BME280;67472;51.554;7.812;2023-12-07T13:18:00;100835.69;;;6.43;100.00
78198;BME280;67472;51.554;7.812;2023-12-07T13:20:47;100827.22;;;6.52;100.00
78198;BME280;67472;51.554;7.812;2023-12-07T13:23:36;100834.75;;;6.44;100.00
78198;BME280;67472;51.554;7.812;2023-12-07T13:26:23;100834.53;;;6.47;100.00
78198;BME280;67472;51.554;7.812;2023-12-07T13:29:09;100829.13;;;6.36;100.00
78198;BME280;67472;51.554;7.812;2023-12-07T13:31:56;100823.69;;;6.39;100.00
78198;BME280;67472;51.554;7.812;2023-12-07T13:34:43;100819.50;;;6.22;100.00
78198;BME280;67472;51.554;7.812;2023-12-07T13:37:30;100813.41;;;6.22;100.00
78198;BME280;67472;51.554;7.812;2023-12-07T13:40:17;100824.84;;;6.07;100.00
78198;BME280;67472;51.554;7.812;2023-12-07T13:43:03;100820.31;;;5.81;100.00
78198;BME280;67472;51.554;7.812;2023-12-07T13:45:51;100823.00;;;5.95;100.00
78198;BME280;67472;51.554;7.812;2023-12-07T13:48:38;100826.44;;;5.95;100.00
78198;BME280;67472;51.554;7.812;2023-12-07T13:51:24;100823.63;;;5.98;100.00
78198;BME280;67472;51.554;7.812;2023-12-07T13:54:13;100824.41;;;6.00;100.00
78198;BME280;67472;51.554;7.812;2023-12-07T13:57:00;100819.50;;;5.80;100.00
78198;BME280;67472;51.554;7.812;2023-12-07T13:59:48;100824.72;;;5.66;100.00
78198;BME280;67472;51.554;7.812;2023-12-07T14:02:35;100829.41;;;5.61;100.00
78198;BME280;67472;51.554;7.812;2023-12-07T14:05:21;100824.16;;;5.61;100.00
78198;BME280;67472;51.554;7.812;2023-12-07T14:08:08;100832.97;;;5.60;100.00
78198;BME280;67472;51.554;7.812;2023-12-07T14:10:56;100827.34;;;5.66;100.00
78198;BME280;67472;51.554;7.812;2023-12-07T14:13:44;100839.00;;;5.46;100.00
78198;BME280;67472;51.554;7.812;2023-12-07T14:16:31;100840.19;;;5.27;100.00
78198;BME280;67472;51.554;7.812;2023-12-07T14:19:17;100844.41;;;5.29;100.00
78198;BME280;67472;51.554;7.812;2023-12-07T14:22:05;100847.56;;;5.34;100.00
78198;BME280;67472;51.554;7.812;2023-12-07T14:24:51;100833.00;;;5.30;100.00
78198;BME280;67472;51.554;7.812;2023-12-07T14:27:39;100835.34;;;5.35;100.00
78198;BME280;67472;51.554;7.812;2023-12-07T14:30:27;100832.31;;;5.27;100.00
78198;BME280;67472;51.554;7.812;2023-12-07T14:33:14;100830.72;;;5.24;100.00
78198;BME280;67472;51.554;7.812;2023-12-07T14:36:00;100836.59;;;5.13;100.00